Humidity-temperature Sensor

Selected Measurement Type: Air Temperature

 
Air Temperature [°C]     6 entries per hour
Showing data from 6/1/2022 (00:00:00 Z) to 5/25/2022 (00:01:00 Z)
Previous Next [ Day | 3-Days | 7-Days ]
First Last
Prev [ Day | 3-Days | 7-Days ] Next
First Last

Start Time:     :
End Time:     :     
Time (in GMT) :00 :50 :40 :30 :20 :10
Previous Next [ Day | 3-Days | 7-Days ]
First Last
Prev [ Day | 3-Days | 7-Days ] Next
First Last


123 => good data
MM => data is determined as missing
-- => data not received/configured
Back to Top Back to Top
6/1/2022 00:00 to 23:10 24.01 24.53 24.25 24.25 24.72 24.64
5/31/2022 23:00 to 22:10 24.34 24.79 24.56 24.36 24.46 24.67
5/31/2022 22:00 to 21:10 24.47 24.51 24.57 24.53 24.44 24.50
5/31/2022 21:00 to 20:10 24.54 24.49 24.43 24.36 24.34 24.26
5/31/2022 20:00 to 19:10 24.08 24.13 24.24 24.26 24.36 24.30
5/31/2022 19:00 to 18:10 24.46 24.45 24.50 24.42 24.48 24.30
5/31/2022 18:00 to 17:10 24.41 24.18 24.32 24.45 24.13 24.17
5/31/2022 17:00 to 16:10 23.95 23.71 23.68 23.83 24.00 23.92
5/31/2022 16:00 to 15:10 24.20 24.72 24.98 25.88 25.94 25.75
5/31/2022 15:00 to 14:10 25.61 25.52 25.41 25.62 25.52 25.62
5/31/2022 14:00 to 13:10 25.47 25.53 25.33 25.52 25.26 25.15
5/31/2022 13:00 to 12:10 25.08 25.11 24.95 24.92 24.25 24.91
5/31/2022 12:00 to 11:10 24.89 24.69 24.72 24.67 24.87 24.87
5/31/2022 11:00 to 10:10 24.66 24.99 25.08 24.94 25.19 25.42
5/31/2022 10:00 to 9:10 24.91 24.96 24.94 25.39 25.14 25.25
5/31/2022 09:00 to 8:10 25.24 25.07 25.51 25.17 25.42 25.16
5/31/2022 08:00 to 7:10 25.15 25.36 24.99 24.80 25.07 25.27
5/31/2022 07:00 to 6:10 25.31 25.36 25.35 25.47 25.53 25.59
5/31/2022 06:00 to 5:10 25.36 25.70 26.43 26.54 26.48 26.44
5/31/2022 05:00 to 4:10 26.49 26.48 26.38 26.34 26.45 26.32
5/31/2022 04:00 to 3:10 26.29 26.17 26.13 26.00 26.06 26.27
5/31/2022 03:00 to 2:10 25.98 26.10 25.96 26.01 25.78 25.93
5/31/2022 02:00 to 1:10 25.87 25.85 26.10 25.93 26.15 26.04
5/31/2022 01:00 to 0:10 25.94 25.95 25.88 26.11 26.16 26.05
5/31/2022 00:00 to 23:10 26.13 26.39 26.35 26.31 26.00 25.91
5/30/2022 23:00 to 22:10 26.13 26.26 25.91 25.95 25.98 26.02
5/30/2022 22:00 to 21:10 26.13 26.42 26.50 26.55 26.50 26.53
5/30/2022 21:00 to 20:10 26.56 26.69 26.61 26.63 26.57 26.71
5/30/2022 20:00 to 19:10 26.61 26.56 26.53 26.46 26.15 26.51
5/30/2022 19:00 to 18:10 26.35 26.00 26.05 25.57 25.89 25.32
5/30/2022 18:00 to 17:10 25.81 26.60 26.59 26.59 26.58 26.62
5/30/2022 17:00 to 16:10 26.81 26.55 26.68 26.46 26.55 27.01
5/30/2022 16:00 to 15:10 26.82 26.97 26.83 26.67 26.76 26.79
5/30/2022 15:00 to 14:10 26.69 26.58 26.53 26.44 26.55 26.33
5/30/2022 14:00 to 13:10 26.51 26.26 26.22 26.11 25.92 25.70
5/30/2022 13:00 to 12:10 25.58 26.00 26.62 26.44 26.30 26.64
5/30/2022 12:00 to 11:10 26.43 26.31 26.43 26.28 26.71 26.45
5/30/2022 11:00 to 10:10 26.47 26.29 26.58 26.64 26.42 26.39
5/30/2022 10:00 to 9:10 26.33 26.74 26.47 26.32 26.23 25.99
5/30/2022 09:00 to 8:10 25.93 26.26 25.87 25.77 25.85 25.45
5/30/2022 08:00 to 7:10 25.36 25.21 25.13 25.00 24.62 24.26
5/30/2022 07:00 to 6:10 23.97 25.36 25.35 25.89 26.23 26.05
5/30/2022 06:00 to 5:10 25.59 25.29 25.95 26.29 26.01 25.80
5/30/2022 05:00 to 4:10 25.69 25.90 26.25 26.24 26.30 26.38
5/30/2022 04:00 to 3:10 26.43 26.44 26.21 25.91 26.37 26.46
5/30/2022 03:00 to 2:10 26.44 26.34 26.19 26.62 26.76 26.46
5/30/2022 02:00 to 1:10 26.31 26.45 26.49 26.50 26.37 26.45
5/30/2022 01:00 to 0:10 26.41 26.35 26.23 26.17 26.25 26.29
5/30/2022 00:00 to 23:10 26.32 26.49 26.60 26.53 26.49 26.44
5/29/2022 23:00 to 22:10 26.18 26.22 26.28 26.31 26.05 26.16
5/29/2022 22:00 to 21:10 26.09 25.96 25.92 25.94 25.82 26.09
5/29/2022 21:00 to 20:10 25.90 25.93 25.94 26.14 25.75 26.08
5/29/2022 20:00 to 19:10 26.32 26.22 26.02 26.31 25.95 26.06
5/29/2022 19:00 to 18:10 25.99 26.12 26.13 26.12 26.14 26.27
5/29/2022 18:00 to 17:10 26.34 26.21 26.27 26.34 26.28 26.22
5/29/2022 17:00 to 16:10 26.19 26.36 26.10 26.07 26.14 26.01
5/29/2022 16:00 to 15:10 26.06 26.02 26.07 25.97 25.99 25.85
5/29/2022 15:00 to 14:10 25.57 25.58 25.41 25.12 25.23 25.34
5/29/2022 14:00 to 13:10 24.98 24.60 24.49 24.38 24.26 24.28
5/29/2022 13:00 to 12:10 24.69 24.83 24.75 24.82 24.64 24.75
5/29/2022 12:00 to 11:10 24.71 25.28 25.37 25.31 25.19 25.39
5/29/2022 11:00 to 10:10 25.27 25.25 24.80 24.84 24.52 24.33
5/29/2022 10:00 to 9:10 24.56 24.77 25.03 25.31 25.40 25.28
5/29/2022 09:00 to 8:10 25.28 25.48 26.24 26.19 26.22 26.36
5/29/2022 08:00 to 7:10 26.15 26.26 26.31 26.10 26.12 25.95
5/29/2022 07:00 to 6:10 25.75 25.34 25.84 25.67 25.79 25.60
5/29/2022 06:00 to 5:10 26.08 26.26 25.96 26.38 26.06 26.15
5/29/2022 05:00 to 4:10 26.22 26.47 26.58 26.54 26.60 26.62
5/29/2022 04:00 to 3:10 26.49 26.41 26.38 26.38 26.29 26.37
5/29/2022 03:00 to 2:10 26.48 26.78 26.39 26.36 26.62 26.47
5/29/2022 02:00 to 1:10 26.55 26.42 26.50 26.37 26.49 26.46
5/29/2022 01:00 to 0:10 26.50 26.55 26.52 26.38 26.40 26.52
5/29/2022 00:00 to 23:10 26.37 26.38 26.48 26.43 26.49 26.40
5/28/2022 23:00 to 22:10 26.51 26.66 26.46 26.37 26.28 26.32
5/28/2022 22:00 to 21:10 26.28 26.29 26.78 26.57 26.63 26.60
5/28/2022 21:00 to 20:10 26.48 26.83 26.55 26.63 26.62 26.54
5/28/2022 20:00 to 19:10 26.59 26.49 26.35 26.41 26.59 26.64
5/28/2022 19:00 to 18:10 26.61 26.55 26.57 26.61 26.56 26.65
5/28/2022 18:00 to 17:10 26.59 26.54 26.55 26.63 26.71 26.61
5/28/2022 17:00 to 16:10 26.57 26.49 26.48 26.42 26.70 26.50
5/28/2022 16:00 to 15:10 26.58 26.47 26.60 26.54 26.60 26.76
5/28/2022 15:00 to 14:10 26.79 26.63 26.59 26.67 26.70 26.64
5/28/2022 14:00 to 13:10 26.64 26.59 26.72 26.65 26.77 26.74
5/28/2022 13:00 to 12:10 26.66 26.79 26.61 26.66 26.50 26.71
5/28/2022 12:00 to 11:10 26.55 26.61 26.45 26.54 26.57 26.41
5/28/2022 11:00 to 10:10 26.19 26.45 26.44 26.46 26.46 26.64
5/28/2022 10:00 to 9:10 26.48 26.17 26.18 26.02 25.93 25.91
5/28/2022 09:00 to 8:10 26.26 26.51 26.54 26.54 26.40 26.46
5/28/2022 08:00 to 7:10 26.32 26.42 26.27 26.18 26.46 26.20
5/28/2022 07:00 to 6:10 26.66 26.48 26.61 26.62 26.66 26.65
5/28/2022 06:00 to 5:10 26.49 26.62 26.68 26.75 26.55 26.89
5/28/2022 05:00 to 4:10 26.73 26.82 26.73 26.84 26.71 26.68
5/28/2022 04:00 to 3:10 26.83 26.82 26.89 26.75 26.81 26.85
5/28/2022 03:00 to 2:10 26.78 26.71 26.71 26.64 26.62 26.80
5/28/2022 02:00 to 1:10 26.68 26.73 26.61 26.68 26.81 26.67
5/28/2022 01:00 to 0:10 26.55 26.69 26.81 26.78 26.77 26.74
5/28/2022 00:00 to 23:10 26.71 26.82 26.81 26.96 26.81 26.53
5/27/2022 23:00 to 22:10 26.69 26.76 26.75 26.87 26.99 26.74
5/27/2022 22:00 to 21:10 26.78 26.69 26.90 26.72 26.44 26.17
5/27/2022 21:00 to 20:10 26.13 26.01 26.01 26.50 26.73 26.87
5/27/2022 20:00 to 19:10 26.73 26.72 26.68 26.81 26.66 26.62
5/27/2022 19:00 to 18:10 26.61 26.53 26.37 26.03 26.23 26.35
5/27/2022 18:00 to 17:10 26.23 26.30 26.43 26.69 26.87 26.70
5/27/2022 17:00 to 16:10 26.54 26.36 26.49 26.41 26.40 26.33
5/27/2022 16:00 to 15:10 26.40 26.23 26.08 26.35 26.39 26.21
5/27/2022 15:00 to 14:10 26.30 26.33 26.27 26.39 26.37 26.99
5/27/2022 14:00 to 13:10 26.73 26.76 26.80 26.90 26.90 26.89
5/27/2022 13:00 to 12:10 26.58 26.80 26.48 26.67 26.73 26.51
5/27/2022 12:00 to 11:10 26.14 26.17 26.13 26.17 26.02 26.29
5/27/2022 11:00 to 10:10 26.08 26.65 26.78 26.67 26.65 26.81
5/27/2022 10:00 to 9:10 26.83 26.66 26.61 26.93 26.71 26.64
5/27/2022 09:00 to 8:10 26.67 26.72 26.59 26.58 26.64 26.57
5/27/2022 08:00 to 7:10 26.73 26.59 26.53 26.64 26.62 26.58
5/27/2022 07:00 to 6:10 26.69 26.55 26.57 26.82 26.69 26.70
5/27/2022 06:00 to 5:10 26.76 26.73 26.78 26.96 27.10 26.98
5/27/2022 05:00 to 4:10 27.09 26.99 26.84 26.94 27.12 26.97
5/27/2022 04:00 to 3:10 26.97 26.85 26.95 27.02 27.05 26.84
5/27/2022 03:00 to 2:10 27.09 26.91 26.80 26.80 26.83 26.89
5/27/2022 02:00 to 1:10 26.90 26.89 26.97 26.92 26.97 26.79
5/27/2022 01:00 to 0:10 26.88 26.83 26.79 26.81 26.74 26.86
5/27/2022 00:00 to 23:10 26.91 27.02 26.88 26.92 26.80 26.92
5/26/2022 23:00 to 22:10 26.99 26.87 26.86 27.18 26.88 26.90
5/26/2022 22:00 to 21:10 26.92 26.97 27.02 26.87 26.83 26.73
5/26/2022 21:00 to 20:10 27.05 26.78 26.95 26.65 26.95 26.89
5/26/2022 20:00 to 19:10 26.86 26.70 26.80 26.77 26.84 26.85
5/26/2022 19:00 to 18:10 27.00 26.98 26.74 26.95 26.73 26.72
5/26/2022 18:00 to 17:10 26.93 26.83 26.83 26.92 26.89 26.83
5/26/2022 17:00 to 16:10 26.88 26.99 26.68 26.70 26.69 26.83
5/26/2022 16:00 to 15:10 26.87 26.86 26.78 26.82 26.95 26.78
5/26/2022 15:00 to 14:10 26.85 26.86 26.84 26.84 26.82 26.80
5/26/2022 14:00 to 13:10 26.92 26.91 26.74 26.71 26.76 26.74
5/26/2022 13:00 to 12:10 26.75 26.79 26.70 26.50 26.72 26.84
5/26/2022 12:00 to 11:10 26.62 26.61 26.59 26.70 26.64 26.64
5/26/2022 11:00 to 10:10 26.75 26.69 26.66 26.66 26.68 26.62
5/26/2022 10:00 to 9:10 26.68 26.74 26.70 26.83 26.68 26.63
5/26/2022 09:00 to 8:10 26.64 26.79 26.55 26.56 26.65 26.73
5/26/2022 08:00 to 7:10 26.62 26.64 26.65 26.74 26.74 26.60
5/26/2022 07:00 to 6:10 26.97 26.67 26.53 26.52 26.52 26.12
5/26/2022 06:00 to 5:10 26.60 26.79 26.69 26.68 26.62 26.77
5/26/2022 05:00 to 4:10 26.82 26.77 26.95 27.05 26.81 27.24
5/26/2022 04:00 to 3:10 26.90 26.87 26.90 26.95 27.12 27.04
5/26/2022 03:00 to 2:10 27.02 27.00 27.08 27.06 27.00 27.00
5/26/2022 02:00 to 1:10 27.07 26.96 26.97 26.91 26.95 27.02
5/26/2022 01:00 to 0:10 27.11 27.03 26.98 26.84 26.87 27.10
5/26/2022 00:00 to 23:10 27.08 27.04 26.94 26.98 26.97 27.03
5/25/2022 23:00 to 22:10 27.02 26.82 26.84 26.80 26.91 27.08
5/25/2022 22:00 to 21:10 26.92 26.83 26.85 27.01 26.95 26.98
5/25/2022 21:00 to 20:10 26.93 27.02 26.98 27.02 26.98 27.03
5/25/2022 20:00 to 19:10 26.96 27.06 27.05 27.04 27.13 26.92
5/25/2022 19:00 to 18:10 27.05 26.76 27.00 26.94 27.10 26.95
5/25/2022 18:00 to 17:10 27.02 26.88 26.94 27.16 27.06 26.99
5/25/2022 17:00 to 16:10 26.97 27.04 27.01 26.99 26.85 26.85
5/25/2022 16:00 to 15:10 27.02 26.83 27.03 26.91 27.00 27.06
5/25/2022 15:00 to 14:10 27.11 26.95 26.95 26.89 26.94 26.97
5/25/2022 14:00 to 13:10 26.89 26.84 26.81 26.89 26.85 26.89
5/25/2022 13:00 to 12:10 26.78 26.74 26.92 26.81 26.98 26.98
5/25/2022 12:00 to 11:10 26.85 26.87 26.93 26.77 26.84 26.80
5/25/2022 11:00 to 10:10 26.81 26.95 26.84 26.75 26.77 27.04
5/25/2022 10:00 to 9:10 26.95 26.86 26.79 26.89 26.93 27.01
5/25/2022 09:00 to 8:10 26.84 27.00 27.09 26.91 26.97 27.06
5/25/2022 08:00 to 7:10 27.01 26.97 27.06 27.18 27.11 27.26
5/25/2022 07:00 to 6:10 27.38 27.17 27.25 27.15 27.29 27.15
5/25/2022 06:00 to 5:10 27.13 27.16 27.32 27.06 27.18 27.12
5/25/2022 05:00 to 4:10 26.88 26.98 27.29 27.06 27.20 27.06
5/25/2022 04:00 to 3:10 27.05 26.53 27.20 27.16 27.04 27.11
5/25/2022 03:00 to 2:10 27.13 27.19 27.06 27.01 27.16 26.96
5/25/2022 02:00 to 1:10 27.19 27.23 27.07 27.17 27.16 27.11
5/25/2022 01:00 to 0:10 27.16 27.20 27.19 27.11 26.95 26.84